createdAt,value
2018-12-04T00:01:23.026Z,1.93
2018-12-04T00:06:32.437Z,1.90
2018-12-04T00:11:41.894Z,1.70
2018-12-04T00:16:51.363Z,1.47
2018-12-04T00:22:00.673Z,1.93
2018-12-04T00:27:10.030Z,2.90
2018-12-04T00:32:19.510Z,3.00
2018-12-04T00:37:28.986Z,3.07
2018-12-04T00:42:38.324Z,1.97
2018-12-04T00:47:47.735Z,2.10
2018-12-04T00:52:57.277Z,1.57
2018-12-04T00:58:06.913Z,1.20
2018-12-04T01:03:16.210Z,1.37
2018-12-04T01:08:25.595Z,1.40
2018-12-04T01:13:35.118Z,1.60
2018-12-04T01:18:44.465Z,1.40
2018-12-04T01:23:53.844Z,1.40
2018-12-04T01:29:03.178Z,1.27
2018-12-04T01:34:12.515Z,1.27
2018-12-04T01:39:23.623Z,1.50
2018-12-04T01:44:33.067Z,1.40
2018-12-04T01:49:43.065Z,1.47
2018-12-04T01:54:52.430Z,1.67
2018-12-04T02:00:01.787Z,1.70
2018-12-04T02:05:25.653Z,1.57
2018-12-04T02:10:35.062Z,1.30
2018-12-04T02:15:44.400Z,1.50
2018-12-04T02:20:53.706Z,1.33
2018-12-04T02:26:03.045Z,1.77
2018-12-04T02:31:12.382Z,1.60
2018-12-04T02:36:21.779Z,1.60
2018-12-04T02:41:31.118Z,1.40
2018-12-04T02:46:40.463Z,1.50
2018-12-04T02:51:49.785Z,1.17
2018-12-04T02:56:59.287Z,1.47
2018-12-04T03:02:08.737Z,1.40
2018-12-04T03:07:18.217Z,2.40
2018-12-04T03:12:27.803Z,1.80
2018-12-04T03:17:37.139Z,2.33
2018-12-04T03:22:46.477Z,2.67
2018-12-04T03:27:56.011Z,2.30
2018-12-04T03:33:05.376Z,1.93
2018-12-04T03:38:14.971Z,1.97
2018-12-04T03:43:24.537Z,2.80
2018-12-04T03:48:34.087Z,1.73
2018-12-04T03:53:43.438Z,1.90
2018-12-04T03:58:53.025Z,1.47
2018-12-04T04:04:02.882Z,1.80
2018-12-04T04:09:12.350Z,2.30
2018-12-04T04:14:21.931Z,2.47
2018-12-04T04:19:31.279Z,1.77
2018-12-04T04:24:40.710Z,1.80
2018-12-04T04:29:50.321Z,2.30
2018-12-04T04:34:59.698Z,1.73
2018-12-04T04:40:09.110Z,1.60
2018-12-04T04:45:18.578Z,2.07
2018-12-04T04:50:27.974Z,1.83
2018-12-04T04:55:37.306Z,2.33
2018-12-04T05:00:46.822Z,1.70
2018-12-04T05:05:56.186Z,1.53
2018-12-04T05:11:05.625Z,2.10
2018-12-04T05:16:15.114Z,1.90
2018-12-04T05:21:24.443Z,2.60
2018-12-04T05:26:33.790Z,2.60
2018-12-04T05:31:43.102Z,1.90
2018-12-04T05:36:52.722Z,2.23
2018-12-04T05:42:02.370Z,1.80
2018-12-04T05:47:11.798Z,1.73
2018-12-04T05:52:21.154Z,2.13
2018-12-04T05:57:30.526Z,1.73
2018-12-04T06:02:39.867Z,2.17
2018-12-04T06:07:49.390Z,1.73
2018-12-04T06:12:58.870Z,1.70
2018-12-04T06:18:08.294Z,3.03
2018-12-04T06:23:17.995Z,1.73
2018-12-04T06:28:27.282Z,2.30
2018-12-04T06:33:36.759Z,2.00
2018-12-04T06:38:46.168Z,2.50
2018-12-04T06:43:55.826Z,2.23
2018-12-04T06:49:05.270Z,1.97
2018-12-04T06:54:14.602Z,2.03
2018-12-04T06:59:23.942Z,3.47
2018-12-04T07:04:33.285Z,2.97
2018-12-04T07:09:42.642Z,2.90
2018-12-04T07:14:52.054Z,2.70
2018-12-04T07:20:01.398Z,2.60
2018-12-04T07:25:10.799Z,2.33
2018-12-04T07:30:20.373Z,3.07
2018-12-04T07:35:29.845Z,2.30
2018-12-04T07:40:39.242Z,2.40
2018-12-04T07:45:48.557Z,2.77
2018-12-04T07:50:57.977Z,2.40
2018-12-04T07:56:07.549Z,2.60
2018-12-04T08:01:16.847Z,2.47
2018-12-04T08:06:26.206Z,1.97
2018-12-04T08:11:35.607Z,2.10
2018-12-04T08:16:44.927Z,2.60
2018-12-04T08:21:54.388Z,1.87
2018-12-04T08:27:04.015Z,2.00
2018-12-04T08:32:13.554Z,2.20
2018-12-04T08:37:22.919Z,1.87
2018-12-04T08:42:32.218Z,2.20
2018-12-04T08:47:41.647Z,1.70
2018-12-04T08:52:51.174Z,2.17
2018-12-04T08:58:00.509Z,2.40
2018-12-04T09:03:09.881Z,2.20
2018-12-04T09:08:19.209Z,1.93
2018-12-04T09:13:28.562Z,2.17
2018-12-04T09:18:38.054Z,2.20
2018-12-04T09:23:47.461Z,2.30
2018-12-04T09:28:57.076Z,2.83
2018-12-04T09:34:06.558Z,2.27
2018-12-04T09:39:15.917Z,2.23
2018-12-04T09:44:25.403Z,2.50
2018-12-04T09:49:34.762Z,2.60
2018-12-04T09:54:44.126Z,2.07
2018-12-04T09:59:53.542Z,2.53
2018-12-04T10:05:02.896Z,2.03
2018-12-04T10:10:12.322Z,1.90
2018-12-04T10:15:21.893Z,1.93
2018-12-04T10:20:31.394Z,2.07
2018-12-04T10:25:45.021Z,1.57
2018-12-04T10:31:00.040Z,2.47
2018-12-04T10:36:09.655Z,1.87
2018-12-04T10:41:18.982Z,2.30
2018-12-04T10:46:28.338Z,2.10
2018-12-04T10:51:37.906Z,1.97
2018-12-04T10:56:47.330Z,1.70
2018-12-04T11:02:02.169Z,1.87
2018-12-04T11:07:11.538Z,1.93
2018-12-04T11:12:21.062Z,2.10
2018-12-04T11:17:30.425Z,2.43
2018-12-04T11:22:39.846Z,1.80
2018-12-04T11:27:49.658Z,1.67
2018-12-04T11:32:59.174Z,1.87
2018-12-04T11:38:08.535Z,1.67
2018-12-04T11:43:17.894Z,2.30
2018-12-04T11:48:27.271Z,2.47
2018-12-04T11:53:36.606Z,1.80
2018-12-04T11:58:46.787Z,1.97
2018-12-04T12:03:56.297Z,2.43
2018-12-04T12:09:09.080Z,1.93
2018-12-04T12:14:18.616Z,1.87
2018-12-04T12:19:28.247Z,2.20
2018-12-04T12:24:37.627Z,1.93
2018-12-04T12:29:46.948Z,2.00
2018-12-04T12:34:57.259Z,2.00
2018-12-04T12:40:08.484Z,1.87
2018-12-04T12:45:17.869Z,1.80
2018-12-04T12:50:27.234Z,1.67
2018-12-04T12:55:36.706Z,2.43
2018-12-04T13:00:46.078Z,2.13
2018-12-04T13:05:55.519Z,2.77
2018-12-04T13:11:05.055Z,2.50
2018-12-04T13:16:14.530Z,3.20
2018-12-04T13:21:23.839Z,2.30
2018-12-04T13:26:33.246Z,3.00
2018-12-04T13:31:42.599Z,2.07
2018-12-04T13:36:52.022Z,2.40
2018-12-04T13:42:02.651Z,2.40
2018-12-04T13:47:12.198Z,2.53
2018-12-04T13:52:21.883Z,2.70
2018-12-04T13:57:31.250Z,2.50
2018-12-04T14:02:40.603Z,1.83
2018-12-04T14:07:50.006Z,2.67
2018-12-04T14:12:59.491Z,1.70
2018-12-04T14:18:09.508Z,1.93
2018-12-04T14:23:19.021Z,2.33
2018-12-04T14:28:29.431Z,1.83
2018-12-04T14:33:38.966Z,1.80
2018-12-04T14:38:48.375Z,1.87
2018-12-04T14:43:58.055Z,1.83
2018-12-04T14:49:07.996Z,2.00
2018-12-04T14:54:17.636Z,2.07
2018-12-04T14:59:27.478Z,1.90
2018-12-04T15:04:37.034Z,2.17
2018-12-04T15:09:46.433Z,1.67
2018-12-04T15:14:56.042Z,1.83
2018-12-04T15:20:06.951Z,1.80
2018-12-04T15:25:16.598Z,2.00
2018-12-04T15:30:26.036Z,2.10
2018-12-04T15:35:35.631Z,1.67
2018-12-04T15:40:44.982Z,1.97
2018-12-04T15:46:08.363Z,1.93
2018-12-04T15:51:17.918Z,1.50
2018-12-04T15:56:27.558Z,2.00
2018-12-04T16:01:38.404Z,2.10
2018-12-04T16:06:49.312Z,2.00
2018-12-04T16:11:58.916Z,1.87
2018-12-04T16:17:14.884Z,2.23
2018-12-04T16:22:19.865Z,1.90
2018-12-04T16:27:29.188Z,2.13
2018-12-04T16:32:38.510Z,2.10
2018-12-04T16:37:47.876Z,2.47
2018-12-04T16:42:57.295Z,2.07
2018-12-04T16:48:06.639Z,3.43
2018-12-04T16:53:16.203Z,2.20
2018-12-04T16:58:25.794Z,3.57
2018-12-04T17:03:35.176Z,3.10
2018-12-04T17:08:44.586Z,3.37
2018-12-04T17:13:54.153Z,3.13
2018-12-04T17:19:03.881Z,3.07
2018-12-04T17:24:13.414Z,2.83
2018-12-04T17:29:23.080Z,2.53
2018-12-04T17:34:32.559Z,2.70
2018-12-04T17:39:42.463Z,2.97
2018-12-04T17:44:51.959Z,3.20
2018-12-04T17:50:01.625Z,3.03
2018-12-04T17:55:11.131Z,3.30
2018-12-04T18:00:20.737Z,3.37
2018-12-04T18:05:30.150Z,3.10
2018-12-04T18:10:39.775Z,6.53
2018-12-04T18:15:49.291Z,4.73
2018-12-04T18:20:58.799Z,3.60
2018-12-04T18:26:08.403Z,3.97
2018-12-04T18:31:17.912Z,3.90
2018-12-04T18:36:27.289Z,4.73
2018-12-04T18:41:36.979Z,3.67
2018-12-04T18:46:46.611Z,3.70
2018-12-04T18:51:56.221Z,4.30
2018-12-04T18:57:05.795Z,3.47
2018-12-04T19:02:15.438Z,3.63
2018-12-04T19:07:25.027Z,3.83
2018-12-04T19:12:34.515Z,3.40
2018-12-04T19:17:44.106Z,3.77
2018-12-04T19:22:53.826Z,3.97
2018-12-04T19:28:03.309Z,3.53
2018-12-04T19:33:12.764Z,3.90
2018-12-04T19:38:22.182Z,4.10
2018-12-04T19:43:31.510Z,3.03
2018-12-04T19:48:41.063Z,3.13
2018-12-04T19:53:50.454Z,3.63
2018-12-04T19:59:00.022Z,3.60
2018-12-04T20:04:09.686Z,3.40
2018-12-04T20:09:19.265Z,3.83
2018-12-04T20:14:28.898Z,3.20
2018-12-04T20:19:38.530Z,3.40
2018-12-04T20:24:47.902Z,3.90
2018-12-04T20:29:57.628Z,3.10
2018-12-04T20:35:07.470Z,3.97
2018-12-04T20:40:17.157Z,4.03
2018-12-04T20:45:26.900Z,4.40
2018-12-04T20:50:36.479Z,4.10
2018-12-04T20:55:45.857Z,4.67
2018-12-04T21:00:55.481Z,4.63
2018-12-04T21:06:05.210Z,4.60
2018-12-04T21:11:15.271Z,4.77
2018-12-04T21:16:24.834Z,4.80
2018-12-04T21:21:34.448Z,4.60
2018-12-04T21:26:45.281Z,4.87
2018-12-04T21:32:00.224Z,4.77
2018-12-04T21:37:16.096Z,4.53
2018-12-04T21:42:31.027Z,5.60
2018-12-04T21:47:46.179Z,5.93
2018-12-04T21:52:57.784Z,7.20
2018-12-04T21:58:36.176Z,7.83
